sensor_id;sensor_type;location;lat;lon;timestamp;temperature;humidity
27890;DHT22;15238;49.082;9.102;2022-07-10T00:00:50;17.90;99.90
27890;DHT22;15238;49.082;9.102;2022-07-10T00:02:51;17.80;99.90
27890;DHT22;15238;49.082;9.102;2022-07-10T00:04:52;17.70;99.90
27890;DHT22;15238;49.082;9.102;2022-07-10T00:06:53;17.70;99.90
27890;DHT22;15238;49.082;9.102;2022-07-10T00:08:56;17.60;99.90
27890;DHT22;15238;49.082;9.102;2022-07-10T00:10:56;17.50;99.90
27890;DHT22;15238;49.082;9.102;2022-07-10T00:12:57;17.60;99.90
27890;DHT22;15238;49.082;9.102;2022-07-10T00:14:57;17.60;99.90
27890;DHT22;15238;49.082;9.102;2022-07-10T00:16:58;17.60;99.90
27890;DHT22;15238;49.082;9.102;2022-07-10T00:18:59;17.60;99.90
27890;DHT22;15238;49.082;9.102;2022-07-10T00:20:59;17.50;99.90
27890;DHT22;15238;49.082;9.102;2022-07-10T00:23:00;17.60;99.90
27890;DHT22;15238;49.082;9.102;2022-07-10T00:25:01;17.50;99.90
27890;DHT22;15238;49.082;9.102;2022-07-10T00:27:02;17.50;99.90
27890;DHT22;15238;49.082;9.102;2022-07-10T00:29:03;17.60;99.90
27890;DHT22;15238;49.082;9.102;2022-07-10T00:31:03;17.60;99.90
27890;DHT22;15238;49.082;9.102;2022-07-10T00:33:04;17.60;99.90
27890;DHT22;15238;49.082;9.102;2022-07-10T00:35:06;17.50;99.90
27890;DHT22;15238;49.082;9.102;2022-07-10T00:37:07;17.50;99.90
27890;DHT22;15238;49.082;9.102;2022-07-10T00:39:07;17.50;99.90
27890;DHT22;15238;49.082;9.102;2022-07-10T00:41:08;17.50;99.90
27890;DHT22;15238;49.082;9.102;2022-07-10T00:43:09;17.40;99.90
27890;DHT22;15238;49.082;9.102;2022-07-10T00:45:09;17.40;99.90
27890;DHT22;15238;49.082;9.102;2022-07-10T00:47:11;17.40;99.90
27890;DHT22;15238;49.082;9.102;2022-07-10T00:49:11;17.40;99.90
27890;DHT22;15238;49.082;9.102;2022-07-10T00:51:13;17.30;99.90
27890;DHT22;15238;49.082;9.102;2022-07-10T00:53:14;17.30;99.90
27890;DHT22;15238;49.082;9.102;2022-07-10T00:55:15;17.20;99.90
27890;DHT22;15238;49.082;9.102;2022-07-10T00:57:16;17.20;99.90
27890;DHT22;15238;49.082;9.102;2022-07-10T00:59:18;17.10;99.90
27890;DHT22;15238;49.082;9.102;2022-07-10T01:01:19;17.10;99.90
27890;DHT22;15238;49.082;9.102;2022-07-10T01:03:19;17.00;99.90
27890;DHT22;15238;49.082;9.102;2022-07-10T01:05:20;16.90;99.90
27890;DHT22;15238;49.082;9.102;2022-07-10T01:07:20;16.90;99.90
27890;DHT22;15238;49.082;9.102;2022-07-10T01:09:21;16.90;99.90
27890;DHT22;15238;49.082;9.102;2022-07-10T01:11:22;16.80;99.90
27890;DHT22;15238;49.082;9.102;2022-07-10T01:13:22;16.80;99.90
27890;DHT22;15238;49.082;9.102;2022-07-10T01:15:23;16.80;99.90
27890;DHT22;15238;49.082;9.102;2022-07-10T01:17:24;16.80;99.90
27890;DHT22;15238;49.082;9.102;2022-07-10T01:19:25;16.80;99.90
27890;DHT22;15238;49.082;9.102;2022-07-10T01:21:33;16.80;99.90
27890;DHT22;15238;49.082;9.102;2022-07-10T01:23:34;16.70;99.90
27890;DHT22;15238;49.082;9.102;2022-07-10T01:25:34;16.70;99.90
27890;DHT22;15238;49.082;9.102;2022-07-10T01:27:35;16.80;99.90
27890;DHT22;15238;49.082;9.102;2022-07-10T01:29:35;16.80;99.90
27890;DHT22;15238;49.082;9.102;2022-07-10T01:31:37;16.80;99.90
27890;DHT22;15238;49.082;9.102;2022-07-10T01:33:39;16.80;99.90
27890;DHT22;15238;49.082;9.102;2022-07-10T01:35:41;16.70;99.90
27890;DHT22;15238;49.082;9.102;2022-07-10T01:37:41;16.70;99.90
27890;DHT22;15238;49.082;9.102;2022-07-10T01:39:42;16.80;99.90
27890;DHT22;15238;49.082;9.102;2022-07-10T01:41:42;16.80;99.90
27890;DHT22;15238;49.082;9.102;2022-07-10T01:43:43;16.80;99.90
27890;DHT22;15238;49.082;9.102;2022-07-10T01:45:45;16.70;99.90
27890;DHT22;15238;49.082;9.102;2022-07-10T01:47:45;16.60;99.90
27890;DHT22;15238;49.082;9.102;2022-07-10T01:49:46;16.50;99.90
27890;DHT22;15238;49.082;9.102;2022-07-10T01:51:46;16.50;99.90
27890;DHT22;15238;49.082;9.102;2022-07-10T01:53:47;16.40;99.90
27890;DHT22;15238;49.082;9.102;2022-07-10T01:55:48;16.40;99.90
27890;DHT22;15238;49.082;9.102;2022-07-10T01:57:48;16.30;99.90
27890;DHT22;15238;49.082;9.102;2022-07-10T01:59:49;16.20;99.90
27890;DHT22;15238;49.082;9.102;2022-07-10T02:01:49;16.10;99.90
27890;DHT22;15238;49.082;9.102;2022-07-10T02:03:50;16.10;99.90
27890;DHT22;15238;49.082;9.102;2022-07-10T02:06:09;16.20;99.90
27890;DHT22;15238;49.082;9.102;2022-07-10T02:08:10;16.00;99.90
27890;DHT22;15238;49.082;9.102;2022-07-10T02:10:10;16.00;99.90
27890;DHT22;15238;49.082;9.102;2022-07-10T02:12:13;15.90;99.90
27890;DHT22;15238;49.082;9.102;2022-07-10T02:14:13;15.80;99.90
27890;DHT22;15238;49.082;9.102;2022-07-10T02:16:14;15.80;99.90
27890;DHT22;15238;49.082;9.102;2022-07-10T02:18:15;15.80;99.90
27890;DHT22;15238;49.082;9.102;2022-07-10T02:20:15;15.80;99.90
27890;DHT22;15238;49.082;9.102;2022-07-10T02:22:16;15.80;99.90
27890;DHT22;15238;49.082;9.102;2022-07-10T02:24:17;15.70;99.90
27890;DHT22;15238;49.082;9.102;2022-07-10T02:26:17;15.70;99.90
27890;DHT22;15238;49.082;9.102;2022-07-10T02:28:18;15.70;99.90
27890;DHT22;15238;49.082;9.102;2022-07-10T02:30:18;15.70;99.90
27890;DHT22;15238;49.082;9.102;2022-07-10T02:32:19;15.70;99.90
27890;DHT22;15238;49.082;9.102;2022-07-10T02:34:19;15.70;99.90
27890;DHT22;15238;49.082;9.102;2022-07-10T02:36:20;15.80;99.90
27890;DHT22;15238;49.082;9.102;2022-07-10T02:38:20;15.70;99.90
27890;DHT22;15238;49.082;9.102;2022-07-10T02:40:21;15.80;99.90
27890;DHT22;15238;49.082;9.102;2022-07-10T02:42:21;15.80;99.90
27890;DHT22;15238;49.082;9.102;2022-07-10T02:44:22;15.80;99.90
27890;DHT22;15238;49.082;9.102;2022-07-10T02:46:23;15.80;99.90
27890;DHT22;15238;49.082;9.102;2022-07-10T02:48:23;15.80;99.90
27890;DHT22;15238;49.082;9.102;2022-07-10T02:50:24;15.80;99.90
27890;DHT22;15238;49.082;9.102;2022-07-10T02:52:25;15.70;99.90
27890;DHT22;15238;49.082;9.102;2022-07-10T02:54:26;15.80;99.90
27890;DHT22;15238;49.082;9.102;2022-07-10T02:56:26;15.80;99.90
27890;DHT22;15238;49.082;9.102;2022-07-10T02:58:27;15.70;99.90
27890;DHT22;15238;49.082;9.102;2022-07-10T03:00:27;15.70;99.90
27890;DHT22;15238;49.082;9.102;2022-07-10T03:02:28;15.60;99.90
27890;DHT22;15238;49.082;9.102;2022-07-10T03:04:28;15.60;99.90
27890;DHT22;15238;49.082;9.102;2022-07-10T03:06:29;15.60;99.90
27890;DHT22;15238;49.082;9.102;2022-07-10T03:08:30;15.60;99.90
27890;DHT22;15238;49.082;9.102;2022-07-10T03:10:30;15.60;99.90
27890;DHT22;15238;49.082;9.102;2022-07-10T03:12:31;15.60;99.90
27890;DHT22;15238;49.082;9.102;2022-07-10T03:14:32;15.60;99.90
27890;DHT22;15238;49.082;9.102;2022-07-10T03:16:32;15.60;99.90
27890;DHT22;15238;49.082;9.102;2022-07-10T03:18:33;15.60;99.90
27890;DHT22;15238;49.082;9.102;2022-07-10T03:20:33;15.70;99.90
27890;DHT22;15238;49.082;9.102;2022-07-10T03:22:34;15.80;99.90
27890;DHT22;15238;49.082;9.102;2022-07-10T03:24:35;15.80;99.90
27890;DHT22;15238;49.082;9.102;2022-07-10T03:26:35;15.70;99.90
27890;DHT22;15238;49.082;9.102;2022-07-10T03:28:36;15.70;99.90
27890;DHT22;15238;49.082;9.102;2022-07-10T03:30:36;15.70;99.90
27890;DHT22;15238;49.082;9.102;2022-07-10T03:32:37;15.70;99.90
27890;DHT22;15238;49.082;9.102;2022-07-10T03:34:38;15.60;99.90
27890;DHT22;15238;49.082;9.102;2022-07-10T03:36:38;15.60;99.90
27890;DHT22;15238;49.082;9.102;2022-07-10T03:38:40;15.60;99.90
27890;DHT22;15238;49.082;9.102;2022-07-10T03:40:40;15.60;99.90
27890;DHT22;15238;49.082;9.102;2022-07-10T03:42:41;15.60;99.90
27890;DHT22;15238;49.082;9.102;2022-07-10T03:44:42;15.60;99.90
27890;DHT22;15238;49.082;9.102;2022-07-10T03:46:43;15.60;99.90
27890;DHT22;15238;49.082;9.102;2022-07-10T03:48:43;15.60;99.90
27890;DHT22;15238;49.082;9.102;2022-07-10T03:50:44;15.60;99.90
27890;DHT22;15238;49.082;9.102;2022-07-10T03:52:44;15.70;99.90
27890;DHT22;15238;49.082;9.102;2022-07-10T03:54:46;15.70;99.90
27890;DHT22;15238;49.082;9.102;2022-07-10T03:56:47;15.70;99.90
27890;DHT22;15238;49.082;9.102;2022-07-10T03:59:06;15.70;99.90
27890;DHT22;15238;49.082;9.102;2022-07-10T04:01:06;15.70;99.90
27890;DHT22;15238;49.082;9.102;2022-07-10T04:03:07;15.80;99.90
27890;DHT22;15238;49.082;9.102;2022-07-10T04:05:09;15.70;99.90
27890;DHT22;15238;49.082;9.102;2022-07-10T04:07:10;15.70;99.90
27890;DHT22;15238;49.082;9.102;2022-07-10T04:09:12;15.70;99.90
27890;DHT22;15238;49.082;9.102;2022-07-10T04:11:13;15.70;99.90
27890;DHT22;15238;49.082;9.102;2022-07-10T04:13:13;15.70;99.90
27890;DHT22;15238;49.082;9.102;2022-07-10T04:15:14;15.70;99.90
27890;DHT22;15238;49.082;9.102;2022-07-10T04:17:15;15.60;99.90
27890;DHT22;15238;49.082;9.102;2022-07-10T04:19:15;15.70;99.90
27890;DHT22;15238;49.082;9.102;2022-07-10T04:21:16;15.70;99.90
27890;DHT22;15238;49.082;9.102;2022-07-10T04:23:16;15.60;99.90
27890;DHT22;15238;49.082;9.102;2022-07-10T04:25:17;15.60;99.90
27890;DHT22;15238;49.082;9.102;2022-07-10T04:27:17;15.60;99.90
27890;DHT22;15238;49.082;9.102;2022-07-10T04:29:18;15.60;99.90
27890;DHT22;15238;49.082;9.102;2022-07-10T04:31:18;15.60;99.90
27890;DHT22;15238;49.082;9.102;2022-07-10T04:33:19;15.60;99.90
27890;DHT22;15238;49.082;9.102;2022-07-10T04:35:19;15.60;99.90
27890;DHT22;15238;49.082;9.102;2022-07-10T04:37:20;15.60;99.90
27890;DHT22;15238;49.082;9.102;2022-07-10T04:39:21;15.40;99.90
27890;DHT22;15238;49.082;9.102;2022-07-10T04:41:22;15.40;99.90
27890;DHT22;15238;49.082;9.102;2022-07-10T04:43:22;15.50;99.90
27890;DHT22;15238;49.082;9.102;2022-07-10T04:45:23;15.50;99.90
27890;DHT22;15238;49.082;9.102;2022-07-10T04:47:23;15.50;99.90
27890;DHT22;15238;49.082;9.102;2022-07-10T04:49:24;15.60;99.90
27890;DHT22;15238;49.082;9.102;2022-07-10T04:51:25;15.70;99.90
27890;DHT22;15238;49.082;9.102;2022-07-10T04:53:25;15.70;99.90
27890;DHT22;15238;49.082;9.102;2022-07-10T04:55:26;15.80;99.90
27890;DHT22;15238;49.082;9.102;2022-07-10T04:57:27;15.90;99.90
27890;DHT22;15238;49.082;9.102;2022-07-10T04:59:27;15.90;99.90
27890;DHT22;15238;49.082;9.102;2022-07-10T05:01:28;16.00;99.90
27890;DHT22;15238;49.082;9.102;2022-07-10T05:03:29;16.10;99.90
27890;DHT22;15238;49.082;9.102;2022-07-10T05:05:29;16.10;99.90
27890;DHT22;15238;49.082;9.102;2022-07-10T05:07:30;16.10;99.90
27890;DHT22;15238;49.082;9.102;2022-07-10T05:09:30;16.20;99.90
27890;DHT22;15238;49.082;9.102;2022-07-10T05:11:31;16.10;99.90
27890;DHT22;15238;49.082;9.102;2022-07-10T05:13:31;16.10;99.90
27890;DHT22;15238;49.082;9.102;2022-07-10T05:15:32;16.10;99.90
27890;DHT22;15238;49.082;9.102;2022-07-10T05:17:32;16.20;99.90
27890;DHT22;15238;49.082;9.102;2022-07-10T05:19:33;16.20;99.90
27890;DHT22;15238;49.082;9.102;2022-07-10T05:21:33;16.20;99.90
27890;DHT22;15238;49.082;9.102;2022-07-10T05:23:34;16.30;99.90
27890;DHT22;15238;49.082;9.102;2022-07-10T05:25:35;16.40;99.90
27890;DHT22;15238;49.082;9.102;2022-07-10T05:27:37;16.50;99.90
27890;DHT22;15238;49.082;9.102;2022-07-10T05:29:38;16.50;99.90
27890;DHT22;15238;49.082;9.102;2022-07-10T05:31:38;16.60;99.90
27890;DHT22;15238;49.082;9.102;2022-07-10T05:33:39;16.50;99.90
27890;DHT22;15238;49.082;9.102;2022-07-10T05:35:41;16.50;99.90
27890;DHT22;15238;49.082;9.102;2022-07-10T05:37:41;16.40;99.90
27890;DHT22;15238;49.082;9.102;2022-07-10T05:39:42;16.40;99.90
27890;DHT22;15238;49.082;9.102;2022-07-10T05:41:42;16.40;99.90
27890;DHT22;15238;49.082;9.102;2022-07-10T05:43:43;16.50;99.90
27890;DHT22;15238;49.082;9.102;2022-07-10T05:45:43;16.50;99.90
27890;DHT22;15238;49.082;9.102;2022-07-10T05:47:44;16.40;99.90
27890;DHT22;15238;49.082;9.102;2022-07-10T05:49:45;16.40;99.90
27890;DHT22;15238;49.082;9.102;2022-07-10T05:51:45;16.50;99.90
27890;DHT22;15238;49.082;9.102;2022-07-10T05:53:46;16.60;99.90
27890;DHT22;15238;49.082;9.102;2022-07-10T05:55:47;16.70;99.90
27890;DHT22;15238;49.082;9.102;2022-07-10T05:57:48;16.60;99.90
27890;DHT22;15238;49.082;9.102;2022-07-10T05:59:49;16.70;99.90
27890;DHT22;15238;49.082;9.102;2022-07-10T06:01:49;16.80;99.90
27890;DHT22;15238;49.082;9.102;2022-07-10T06:03:50;16.70;99.90
27890;DHT22;15238;49.082;9.102;2022-07-10T06:05:50;16.70;99.90
27890;DHT22;15238;49.082;9.102;2022-07-10T06:07:51;16.70;99.90
27890;DHT22;15238;49.082;9.102;2022-07-10T06:09:51;16.90;99.90
27890;DHT22;15238;49.082;9.102;2022-07-10T06:11:52;17.10;99.90
27890;DHT22;15238;49.082;9.102;2022-07-10T06:13:52;17.20;99.90
27890;DHT22;15238;49.082;9.102;2022-07-10T06:15:53;17.40;99.90
27890;DHT22;15238;49.082;9.102;2022-07-10T06:17:56;17.50;99.90
27890;DHT22;15238;49.082;9.102;2022-07-10T06:19:58;17.40;99.90
27890;DHT22;15238;49.082;9.102;2022-07-10T06:21:58;17.40;99.90
27890;DHT22;15238;49.082;9.102;2022-07-10T06:24:22;17.40;99.90
27890;DHT22;15238;49.082;9.102;2022-07-10T06:26:22;17.20;99.90
27890;DHT22;15238;49.082;9.102;2022-07-10T06:28:23;17.20;99.90
27890;DHT22;15238;49.082;9.102;2022-07-10T06:30:23;17.20;99.90
27890;DHT22;15238;49.082;9.102;2022-07-10T06:32:25;17.00;99.90
27890;DHT22;15238;49.082;9.102;2022-07-10T06:34:26;16.80;99.90
27890;DHT22;15238;49.082;9.102;2022-07-10T06:36:27;16.90;99.90
27890;DHT22;15238;49.082;9.102;2022-07-10T06:38:27;17.00;99.90
27890;DHT22;15238;49.082;9.102;2022-07-10T06:40:35;17.00;99.90
27890;DHT22;15238;49.082;9.102;2022-07-10T06:42:36;17.10;99.90
27890;DHT22;15238;49.082;9.102;2022-07-10T06:44:37;17.30;99.90
27890;DHT22;15238;49.082;9.102;2022-07-10T06:46:37;17.30;99.90
27890;DHT22;15238;49.082;9.102;2022-07-10T06:48:38;17.40;99.90
27890;DHT22;15238;49.082;9.102;2022-07-10T06:50:40;17.60;99.90
27890;DHT22;15238;49.082;9.102;2022-07-10T06:52:41;17.80;99.90
27890;DHT22;15238;49.082;9.102;2022-07-10T06:54:42;17.60;99.90
27890;DHT22;15238;49.082;9.102;2022-07-10T06:56:43;17.70;99.90
27890;DHT22;15238;49.082;9.102;2022-07-10T06:58:44;17.50;99.90
27890;DHT22;15238;49.082;9.102;2022-07-10T07:00:44;17.40;99.90
27890;DHT22;15238;49.082;9.102;2022-07-10T07:02:45;17.30;99.90
27890;DHT22;15238;49.082;9.102;2022-07-10T07:04:45;17.30;99.90
27890;DHT22;15238;49.082;9.102;2022-07-10T07:06:46;17.40;99.90
27890;DHT22;15238;49.082;9.102;2022-07-10T07:08:46;17.30;99.90
27890;DHT22;15238;49.082;9.102;2022-07-10T07:10:48;17.20;99.90
27890;DHT22;15238;49.082;9.102;2022-07-10T07:12:49;17.30;99.90
27890;DHT22;15238;49.082;9.102;2022-07-10T07:14:50;17.30;99.90
27890;DHT22;15238;49.082;9.102;2022-07-10T07:16:50;17.30;99.90
27890;DHT22;15238;49.082;9.102;2022-07-10T07:19:09;17.20;99.90
27890;DHT22;15238;49.082;9.102;2022-07-10T07:21:17;17.30;99.90
27890;DHT22;15238;49.082;9.102;2022-07-10T07:23:36;17.70;99.90
27890;DHT22;15238;49.082;9.102;2022-07-10T07:25:38;17.70;99.90
27890;DHT22;15238;49.082;9.102;2022-07-10T07:27:42;17.70;99.90
27890;DHT22;15238;49.082;9.102;2022-07-10T07:29:43;17.60;99.90
27890;DHT22;15238;49.082;9.102;2022-07-10T07:31:44;17.40;99.50
27890;DHT22;15238;49.082;9.102;2022-07-10T07:33:44;17.30;99.60
27890;DHT22;15238;49.082;9.102;2022-07-10T07:35:45;17.40;99.20
27890;DHT22;15238;49.082;9.102;2022-07-10T07:37:47;17.70;99.20
27890;DHT22;15238;49.082;9.102;2022-07-10T07:39:48;17.80;98.40
27890;DHT22;15238;49.082;9.102;2022-07-10T07:41:48;18.00;97.40
27890;DHT22;15238;49.082;9.102;2022-07-10T07:43:49;18.10;97.70
27890;DHT22;15238;49.082;9.102;2022-07-10T07:45:50;18.30;97.50
27890;DHT22;15238;49.082;9.102;2022-07-10T07:47:51;18.50;96.80
27890;DHT22;15238;49.082;9.102;2022-07-10T07:49:51;18.60;97.00
27890;DHT22;15238;49.082;9.102;2022-07-10T07:51:52;18.40;96.20
27890;DHT22;15238;49.082;9.102;2022-07-10T07:53:52;18.50;96.60
27890;DHT22;15238;49.082;9.102;2022-07-10T07:55:53;18.50;96.20
27890;DHT22;15238;49.082;9.102;2022-07-10T07:57:56;18.30;96.20
27890;DHT22;15238;49.082;9.102;2022-07-10T07:59:57;18.30;96.00
27890;DHT22;15238;49.082;9.102;2022-07-10T08:01:57;18.40;95.90
27890;DHT22;15238;49.082;9.102;2022-07-10T08:03:58;18.50;95.20
27890;DHT22;15238;49.082;9.102;2022-07-10T08:05:59;18.40;94.70
27890;DHT22;15238;49.082;9.102;2022-07-10T08:08:06;18.30;95.00
27890;DHT22;15238;49.082;9.102;2022-07-10T08:10:12;18.50;94.70
27890;DHT22;15238;49.082;9.102;2022-07-10T08:12:13;18.40;95.30
27890;DHT22;15238;49.082;9.102;2022-07-10T08:14:14;18.30;95.00
27890;DHT22;15238;49.082;9.102;2022-07-10T08:16:14;18.40;95.40
27890;DHT22;15238;49.082;9.102;2022-07-10T08:18:15;18.80;94.60
27890;DHT22;15238;49.082;9.102;2022-07-10T08:20:16;19.10;93.90
27890;DHT22;15238;49.082;9.102;2022-07-10T08:22:17;19.40;93.50
27890;DHT22;15238;49.082;9.102;2022-07-10T08:24:17;19.60;92.80
27890;DHT22;15238;49.082;9.102;2022-07-10T08:26:19;19.70;92.50
27890;DHT22;15238;49.082;9.102;2022-07-10T08:28:19;19.80;92.40
27890;DHT22;15238;49.082;9.102;2022-07-10T08:30:20;19.70;92.60
27890;DHT22;15238;49.082;9.102;2022-07-10T08:32:21;20.00;92.30
27890;DHT22;15238;49.082;9.102;2022-07-10T08:34:21;20.10;91.20
27890;DHT22;15238;49.082;9.102;2022-07-10T08:36:22;20.00;91.50
27890;DHT22;15238;49.082;9.102;2022-07-10T08:38:22;20.00;91.40
27890;DHT22;15238;49.082;9.102;2022-07-10T08:40:23;19.90;91.30
27890;DHT22;15238;49.082;9.102;2022-07-10T08:42:24;19.80;91.50
27890;DHT22;15238;49.082;9.102;2022-07-10T08:44:26;19.90;91.10
27890;DHT22;15238;49.082;9.102;2022-07-10T08:46:27;19.80;91.50
27890;DHT22;15238;49.082;9.102;2022-07-10T08:48:29;19.80;90.80
27890;DHT22;15238;49.082;9.102;2022-07-10T08:50:33;19.70;90.40
27890;DHT22;15238;49.082;9.102;2022-07-10T08:52:42;19.60;90.90
27890;DHT22;15238;49.082;9.102;2022-07-10T08:54:43;19.40;91.50
27890;DHT22;15238;49.082;9.102;2022-07-10T08:56:44;19.70;90.90
27890;DHT22;15238;49.082;9.102;2022-07-10T08:58:45;20.20;90.60
27890;DHT22;15238;49.082;9.102;2022-07-10T09:00:46;20.20;90.60
27890;DHT22;15238;49.082;9.102;2022-07-10T09:02:46;20.30;90.10
27890;DHT22;15238;49.082;9.102;2022-07-10T09:04:47;20.50;89.00
27890;DHT22;15238;49.082;9.102;2022-07-10T09:06:48;20.50;88.00
27890;DHT22;15238;49.082;9.102;2022-07-10T09:09:01;20.60;88.80
27890;DHT22;15238;49.082;9.102;2022-07-10T09:11:15;20.20;90.00
27890;DHT22;15238;49.082;9.102;2022-07-10T09:13:15;20.20;90.30
27890;DHT22;15238;49.082;9.102;2022-07-10T09:15:18;20.10;89.50
27890;DHT22;15238;49.082;9.102;2022-07-10T09:17:19;20.10;90.00
27890;DHT22;15238;49.082;9.102;2022-07-10T09:19:21;20.10;89.90
27890;DHT22;15238;49.082;9.102;2022-07-10T09:21:22;20.00;90.30
27890;DHT22;15238;49.082;9.102;2022-07-10T09:23:23;19.80;90.50
27890;DHT22;15238;49.082;9.102;2022-07-10T09:25:32;19.50;91.00
27890;DHT22;15238;49.082;9.102;2022-07-10T09:27:51;19.20;91.80
27890;DHT22;15238;49.082;9.102;2022-07-10T09:29:52;19.40;91.50
27890;DHT22;15238;49.082;9.102;2022-07-10T09:32:00;19.50;91.20
27890;DHT22;15238;49.082;9.102;2022-07-10T09:34:00;19.40;91.20
27890;DHT22;15238;49.082;9.102;2022-07-10T09:36:05;19.40;91.50
27890;DHT22;15238;49.082;9.102;2022-07-10T09:38:06;19.70;91.00
27890;DHT22;15238;49.082;9.102;2022-07-10T09:40:08;19.80;91.10
27890;DHT22;15238;49.082;9.102;2022-07-10T09:42:42;20.00;90.80
27890;DHT22;15238;49.082;9.102;2022-07-10T09:44:47;20.10;90.90
27890;DHT22;15238;49.082;9.102;2022-07-10T09:46:48;20.20;90.90
27890;DHT22;15238;49.082;9.102;2022-07-10T09:51:11;20.20;90.30
27890;DHT22;15238;49.082;9.102;2022-07-10T09:53:11;20.30;89.60
27890;DHT22;15238;49.082;9.102;2022-07-10T09:55:14;20.40;90.00
27890;DHT22;15238;49.082;9.102;2022-07-10T09:57:15;20.50;89.10
27890;DHT22;15238;49.082;9.102;2022-07-10T09:59:20;20.30;90.30
27890;DHT22;15238;49.082;9.102;2022-07-10T10:01:21;20.10;90.50
27890;DHT22;15238;49.082;9.102;2022-07-10T10:03:25;20.20;90.60
27890;DHT22;15238;49.082;9.102;2022-07-10T10:07:37;20.30;90.90
27890;DHT22;15238;49.082;9.102;2022-07-10T10:09:41;20.70;90.10
27890;DHT22;15238;49.082;9.102;2022-07-10T10:11:44;21.20;90.40
27890;DHT22;15238;49.082;9.102;2022-07-10T10:13:46;21.60;89.70
27890;DHT22;15238;49.082;9.102;2022-07-10T10:15:48;21.80;88.30
27890;DHT22;15238;49.082;9.102;2022-07-10T10:17:50;21.80;88.40
27890;DHT22;15238;49.082;9.102;2022-07-10T10:19:52;21.80;85.70
27890;DHT22;15238;49.082;9.102;2022-07-10T10:22:13;21.40;86.50
27890;DHT22;15238;49.082;9.102;2022-07-10T10:24:14;20.90;88.80
27890;DHT22;15238;49.082;9.102;2022-07-10T10:26:15;20.50;90.80
27890;DHT22;15238;49.082;9.102;2022-07-10T10:28:17;20.30;89.70
27890;DHT22;15238;49.082;9.102;2022-07-10T10:30:18;20.20;90.40
27890;DHT22;15238;49.082;9.102;2022-07-10T10:32:19;20.30;90.30
27890;DHT22;15238;49.082;9.102;2022-07-10T10:34:44;20.40;90.40
27890;DHT22;15238;49.082;9.102;2022-07-10T10:36:46;20.50;90.60
27890;DHT22;15238;49.082;9.102;2022-07-10T10:41:23;20.80;87.20
27890;DHT22;15238;49.082;9.102;2022-07-10T10:43:18;21.20;85.50
27890;DHT22;15238;49.082;9.102;2022-07-10T10:45:32;21.50;84.30
27890;DHT22;15238;49.082;9.102;2022-07-10T10:47:57;21.30;82.00
27890;DHT22;15238;49.082;9.102;2022-07-10T10:49:58;21.30;81.70
27890;DHT22;15238;49.082;9.102;2022-07-10T10:52:02;21.50;82.50
27890;DHT22;15238;49.082;9.102;2022-07-10T10:54:06;21.40;82.00
27890;DHT22;15238;49.082;9.102;2022-07-10T10:58:16;20.90;84.90
27890;DHT22;15238;49.082;9.102;2022-07-10T11:00:32;20.20;86.80
27890;DHT22;15238;49.082;9.102;2022-07-10T11:02:41;20.20;89.10
27890;DHT22;15238;49.082;9.102;2022-07-10T11:04:44;20.30;86.00
27890;DHT22;15238;49.082;9.102;2022-07-10T11:06:49;20.20;86.50
27890;DHT22;15238;49.082;9.102;2022-07-10T11:08:50;20.20;87.10
27890;DHT22;15238;49.082;9.102;2022-07-10T11:10:51;20.20;87.10
27890;DHT22;15238;49.082;9.102;2022-07-10T11:15:02;20.90;85.50
27890;DHT22;15238;49.082;9.102;2022-07-10T11:17:07;21.30;83.60
27890;DHT22;15238;49.082;9.102;2022-07-10T11:19:08;21.20;83.10
27890;DHT22;15238;49.082;9.102;2022-07-10T11:21:19;21.40;83.40
27890;DHT22;15238;49.082;9.102;2022-07-10T11:25:42;21.50;80.80
27890;DHT22;15238;49.082;9.102;2022-07-10T11:29:58;21.20;82.00
27890;DHT22;15238;49.082;9.102;2022-07-10T11:31:58;21.50;81.20
27890;DHT22;15238;49.082;9.102;2022-07-10T11:33:59;21.90;79.60
27890;DHT22;15238;49.082;9.102;2022-07-10T11:36:09;21.90;78.40
27890;DHT22;15238;49.082;9.102;2022-07-10T11:38:11;21.90;78.70
27890;DHT22;15238;49.082;9.102;2022-07-10T11:40:12;21.80;78.50
27890;DHT22;15238;49.082;9.102;2022-07-10T11:42:13;21.50;78.40
27890;DHT22;15238;49.082;9.102;2022-07-10T11:44:16;21.30;80.30
27890;DHT22;15238;49.082;9.102;2022-07-10T11:46:18;21.10;80.00
27890;DHT22;15238;49.082;9.102;2022-07-10T11:48:20;20.80;80.60
27890;DHT22;15238;49.082;9.102;2022-07-10T11:50:24;20.30;81.10
27890;DHT22;15238;49.082;9.102;2022-07-10T11:52:25;20.40;81.90
27890;DHT22;15238;49.082;9.102;2022-07-10T11:54:25;20.70;81.60
27890;DHT22;15238;49.082;9.102;2022-07-10T11:56:29;21.10;79.30
27890;DHT22;15238;49.082;9.102;2022-07-10T11:58:32;21.50;79.30
27890;DHT22;15238;49.082;9.102;2022-07-10T12:00:33;22.00;78.70
27890;DHT22;15238;49.082;9.102;2022-07-10T12:02:33;22.10;75.80
27890;DHT22;15238;49.082;9.102;2022-07-10T12:04:34;22.10;77.20
27890;DHT22;15238;49.082;9.102;2022-07-10T12:06:44;22.00;76.50
27890;DHT22;15238;49.082;9.102;2022-07-10T12:08:45;21.80;76.20
27890;DHT22;15238;49.082;9.102;2022-07-10T12:10:46;21.80;77.40
27890;DHT22;15238;49.082;9.102;2022-07-10T12:12:47;21.80;77.70
27890;DHT22;15238;49.082;9.102;2022-07-10T12:14:50;21.50;78.10
27890;DHT22;15238;49.082;9.102;2022-07-10T12:16:52;21.00;77.80
27890;DHT22;15238;49.082;9.102;2022-07-10T12:18:53;21.00;79.90
27890;DHT22;15238;49.082;9.102;2022-07-10T12:20:53;21.50;78.30
27890;DHT22;15238;49.082;9.102;2022-07-10T12:22:54;21.80;77.10
27890;DHT22;15238;49.082;9.102;2022-07-10T12:24:55;22.10;75.10
27890;DHT22;15238;49.082;9.102;2022-07-10T12:26:56;22.10;75.00
27890;DHT22;15238;49.082;9.102;2022-07-10T12:28:56;22.50;74.50
27890;DHT22;15238;49.082;9.102;2022-07-10T12:30:57;22.90;73.10
27890;DHT22;15238;49.082;9.102;2022-07-10T12:33:09;23.10;73.70
27890;DHT22;15238;49.082;9.102;2022-07-10T12:35:10;22.80;72.90
27890;DHT22;15238;49.082;9.102;2022-07-10T12:37:15;22.30;72.70
27890;DHT22;15238;49.082;9.102;2022-07-10T12:39:18;22.00;74.30
27890;DHT22;15238;49.082;9.102;2022-07-10T12:41:19;22.10;75.50
27890;DHT22;15238;49.082;9.102;2022-07-10T12:43:28;22.30;73.90
27890;DHT22;15238;49.082;9.102;2022-07-10T12:45:29;22.50;72.70
27890;DHT22;15238;49.082;9.102;2022-07-10T12:47:29;22.60;71.20
27890;DHT22;15238;49.082;9.102;2022-07-10T12:49:30;22.60;70.80
27890;DHT22;15238;49.082;9.102;2022-07-10T12:51:43;22.70;71.10
27890;DHT22;15238;49.082;9.102;2022-07-10T12:53:45;22.50;71.90
27890;DHT22;15238;49.082;9.102;2022-07-10T12:55:46;22.30;73.80
27890;DHT22;15238;49.082;9.102;2022-07-10T12:57:58;22.20;71.70
27890;DHT22;15238;49.082;9.102;2022-07-10T13:00:04;22.00;71.20
27890;DHT22;15238;49.082;9.102;2022-07-10T13:02:15;21.80;70.80
27890;DHT22;15238;49.082;9.102;2022-07-10T13:04:26;21.80;71.30
27890;DHT22;15238;49.082;9.102;2022-07-10T13:06:31;22.20;70.90